createdAt,value
2017-08-07T00:00:05.925Z,41.2
2017-08-07T00:02:05.672Z,41.2
2017-08-07T00:04:05.404Z,41.2
2017-08-07T00:06:05.150Z,41.2
2017-08-07T00:08:05.566Z,41.1
2017-08-07T00:10:05.345Z,41.1
2017-08-07T00:12:05.178Z,41.1
2017-08-07T00:14:10.933Z,41.2
2017-08-07T00:16:07.709Z,41.3
2017-08-07T00:18:08.456Z,41.3
2017-08-07T00:20:05.167Z,41.2
2017-08-07T00:22:05.846Z,41.3
2017-08-07T00:24:05.170Z,41.3
2017-08-07T00:26:05.864Z,41.4
2017-08-07T00:28:05.650Z,41.4
2017-08-07T00:30:08.679Z,41.4
2017-08-07T00:32:05.442Z,41.4
2017-08-07T00:34:15.262Z,41.4
2017-08-07T00:36:05.723Z,41.4
2017-08-07T00:38:05.405Z,41.4
2017-08-07T00:40:05.117Z,41.5
2017-08-07T00:42:06.165Z,41.5
2017-08-07T00:44:05.889Z,41.2
2017-08-07T00:46:05.637Z,41.5
2017-08-07T00:48:05.932Z,41.5
2017-08-07T00:50:05.630Z,41.5
2017-08-07T00:52:05.956Z,41.5
2017-08-07T00:54:05.817Z,41.3
2017-08-07T00:56:08.086Z,41.3
2017-08-07T00:58:05.800Z,41.3
2017-08-07T01:00:05.698Z,41.5
2017-08-07T01:02:05.500Z,41.3
2017-08-07T01:04:05.258Z,41.5
2017-08-07T01:06:05.988Z,41.3
2017-08-07T01:08:08.215Z,41.4
2017-08-07T01:10:05.924Z,41.3
2017-08-07T01:12:05.821Z,41.4
2017-08-07T01:14:05.730Z,41.4
2017-08-07T01:16:05.229Z,41.4
2017-08-07T01:18:05.897Z,41.4
2017-08-07T01:20:10.713Z,41.4
2017-08-07T01:22:05.423Z,41.4
2017-08-07T01:24:08.044Z,41.4
2017-08-07T01:26:05.740Z,41.4
2017-08-07T01:28:05.519Z,41.4
2017-08-07T01:30:05.930Z,41.4
2017-08-07T01:32:05.782Z,41.5
2017-08-07T01:34:05.504Z,41.5
2017-08-07T01:36:07.945Z,41.5
2017-08-07T01:38:05.347Z,41.5
2017-08-07T01:40:05.660Z,41.5
2017-08-07T01:42:05.708Z,41.5
2017-08-07T01:44:05.436Z,41.5
2017-08-07T01:46:05.240Z,41.5
2017-08-07T01:48:06.038Z,41.5
2017-08-07T01:50:08.315Z,41.5
2017-08-07T01:52:05.038Z,41.5
2017-08-07T01:54:05.825Z,41.5
2017-08-07T01:56:05.545Z,41.5
2017-08-07T01:58:05.268Z,41.5
2017-08-07T02:00:06.107Z,41.3
2017-08-07T02:02:05.844Z,41.3
2017-08-07T02:04:05.813Z,41.5
2017-08-07T02:06:05.619Z,41.5
2017-08-07T02:08:07.873Z,41.5
2017-08-07T02:10:05.656Z,41.5
2017-08-07T02:12:05.516Z,41.5
2017-08-07T02:14:05.250Z,41.5
2017-08-07T02:16:06.025Z,41.4
2017-08-07T02:18:06.276Z,41.3
2017-08-07T02:20:06.186Z,41.2
2017-08-07T02:22:05.943Z,41.2
2017-08-07T02:24:05.665Z,41.2
2017-08-07T02:26:05.347Z,41.2
2017-08-07T02:28:05.045Z,41.2
2017-08-07T02:30:08.451Z,41.3
2017-08-07T02:32:05.310Z,41.3
2017-08-07T02:34:05.572Z,41.2
2017-08-07T02:36:10.465Z,41.2
2017-08-07T02:38:05.176Z,41.2
2017-08-07T02:40:05.897Z,41.2
2017-08-07T02:42:13.506Z,41.2
2017-08-07T02:44:07.725Z,41.3
2017-08-07T02:46:05.523Z,41.3
2017-08-07T02:48:05.393Z,41.3
2017-08-07T02:50:05.125Z,41.2
2017-08-07T02:52:06.058Z,41.2
2017-08-07T02:54:05.980Z,41.3
2017-08-07T02:56:05.744Z,41.3
2017-08-07T02:58:05.515Z,41.2
2017-08-07T03:00:05.954Z,41.3
2017-08-07T03:02:10.783Z,41.3
2017-08-07T03:04:08.046Z,41.3
2017-08-07T03:06:05.943Z,41.3
2017-08-07T03:08:05.856Z,41
2017-08-07T03:10:05.098Z,41.3
2017-08-07T03:12:05.935Z,41.2
2017-08-07T03:14:05.650Z,41.2
2017-08-07T03:16:05.381Z,41.3
2017-08-07T03:18:05.332Z,41.2
2017-08-07T03:20:10.076Z,41.2
2017-08-07T03:22:05.780Z,41
2017-08-07T03:24:05.182Z,41
2017-08-07T03:26:08.397Z,41
2017-08-07T03:28:05.118Z,41
2017-08-07T03:30:06.018Z,41.1
2017-08-07T03:32:05.825Z,41
2017-08-07T03:34:05.553Z,41
2017-08-07T03:36:05.425Z,41
2017-08-07T03:38:05.193Z,40.8
2017-08-07T03:40:06.145Z,40.9
2017-08-07T03:42:05.949Z,40.9
2017-08-07T03:44:08.263Z,40.8
2017-08-07T03:46:08.532Z,40.8
2017-08-07T03:48:05.358Z,40.8
2017-08-07T03:50:07.661Z,40.8
2017-08-07T03:52:10.457Z,40.8
2017-08-07T03:54:05.243Z,40.8
2017-08-07T03:56:05.983Z,40.8
2017-08-07T03:58:08.248Z,40.8
2017-08-07T04:00:06.142Z,40.7
2017-08-07T04:02:08.390Z,40.7
2017-08-07T04:04:07.653Z,40.7
2017-08-07T04:06:05.955Z,40.5
2017-08-07T04:08:07.769Z,40.7
2017-08-07T04:10:05.558Z,40.7
2017-08-07T04:12:05.380Z,40.7
2017-08-07T04:14:05.100Z,40.7
2017-08-07T04:16:05.814Z,40.7
2017-08-07T04:18:05.852Z,40.7
2017-08-07T04:20:05.586Z,40.6
2017-08-07T04:22:05.912Z,40.7
2017-08-07T04:24:08.516Z,40.7
2017-08-07T04:26:05.235Z,40.5
2017-08-07T04:28:05.773Z,40.7
2017-08-07T04:30:05.494Z,40.7
2017-08-07T04:32:10.266Z,40.7
2017-08-07T04:34:05.949Z,40.7
2017-08-07T04:36:13.820Z,41
2017-08-07T04:38:08.932Z,40.6
2017-08-07T04:40:05.187Z,41
2017-08-07T04:42:06.102Z,40.6
2017-08-07T04:44:11.093Z,40.6
2017-08-07T04:46:08.358Z,40.5
2017-08-07T04:48:05.097Z,40.5
2017-08-07T04:50:08.381Z,40.5
2017-08-07T04:52:05.102Z,40.4
2017-08-07T04:54:05.944Z,40.4
2017-08-07T04:56:05.727Z,40.4
2017-08-07T04:58:05.483Z,40.3
2017-08-07T05:00:05.356Z,40.3
2017-08-07T05:02:05.145Z,40.2
2017-08-07T05:04:05.874Z,40.4
2017-08-07T05:06:05.400Z,40.4
2017-08-07T05:08:08.254Z,40.4
2017-08-07T05:10:08.473Z,40.3
2017-08-07T05:12:05.243Z,40.3
2017-08-07T05:14:05.992Z,40.2
2017-08-07T05:16:11.092Z,40.2
2017-08-07T05:18:08.562Z,40.4
2017-08-07T05:20:05.275Z,40.4
2017-08-07T05:22:06.019Z,40.4
2017-08-07T05:24:10.863Z,40.2
2017-08-07T05:26:05.558Z,40.1
2017-08-07T05:28:10.326Z,40
2017-08-07T05:30:05.905Z,40
2017-08-07T05:32:05.807Z,40.2
2017-08-07T05:34:05.550Z,40.4
2017-08-07T05:36:05.464Z,40.2
2017-08-07T05:38:05.230Z,40.2
2017-08-07T05:40:05.993Z,40.2
2017-08-07T05:42:06.069Z,40.4
2017-08-07T05:44:05.758Z,40.4
2017-08-07T05:46:07.988Z,40.5
2017-08-07T05:48:08.416Z,40.7
2017-08-07T05:50:07.722Z,40.4
2017-08-07T05:52:07.989Z,40.7
2017-08-07T05:54:08.405Z,40.7
2017-08-07T05:56:05.218Z,40.7
2017-08-07T05:58:10.662Z,40.7
2017-08-07T06:00:05.521Z,40.7
2017-08-07T06:02:05.209Z,40.9
2017-08-07T06:04:06.051Z,40.9
2017-08-07T06:06:06.081Z,40.9
2017-08-07T06:08:05.842Z,40.9
2017-08-07T06:10:10.659Z,40.9
2017-08-07T06:12:05.640Z,40.9
2017-08-07T06:14:05.367Z,41.1
2017-08-07T06:16:05.062Z,41.1
2017-08-07T06:18:11.226Z,41.1
2017-08-07T06:20:06.114Z,41.1
2017-08-07T06:22:05.834Z,41.1
2017-08-07T06:24:08.214Z,41.1
2017-08-07T06:26:08.429Z,41.3
2017-08-07T06:28:05.189Z,41.1
2017-08-07T06:30:05.831Z,41.3
2017-08-07T06:32:05.665Z,41.3
2017-08-07T06:34:05.393Z,41.3
2017-08-07T06:36:12.859Z,41.3
2017-08-07T06:38:06.574Z,41.3
2017-08-07T06:40:05.316Z,41.6
2017-08-07T06:42:05.054Z,41.6
2017-08-07T06:44:05.111Z,41.6
2017-08-07T06:46:05.812Z,41.8
2017-08-07T06:48:05.745Z,41.6
2017-08-07T06:50:05.447Z,41.8
2017-08-07T06:52:05.479Z,41.8
2017-08-07T06:54:05.194Z,41.8
2017-08-07T06:56:10.957Z,41.8
2017-08-07T06:58:05.704Z,41.8
2017-08-07T07:00:13.203Z,42
2017-08-07T07:02:08.691Z,42
2017-08-07T07:04:05.404Z,42
2017-08-07T07:06:05.394Z,42
2017-08-07T07:08:05.141Z,42
2017-08-07T07:10:05.409Z,42
2017-08-07T07:12:05.112Z,42
2017-08-07T07:14:05.817Z,42.3
2017-08-07T07:16:05.555Z,42.3
2017-08-07T07:18:08.315Z,42.3
2017-08-07T07:20:06.033Z,42.3
2017-08-07T07:22:05.318Z,42.3
2017-08-07T07:24:07.709Z,42.3
2017-08-07T07:26:05.422Z,42.3
2017-08-07T07:28:05.135Z,42.5
2017-08-07T07:30:05.987Z,42.5
2017-08-07T07:32:05.261Z,42.5
2017-08-07T07:34:05.968Z,42.5
2017-08-07T07:36:05.722Z,42.5
2017-08-07T07:38:05.372Z,42.4
2017-08-07T07:40:05.361Z,42.1
2017-08-07T07:42:05.510Z,41.9
2017-08-07T07:44:05.249Z,41.8
2017-08-07T07:46:08.490Z,41.5
2017-08-07T07:48:07.774Z,41.3
2017-08-07T07:50:05.494Z,41.4
2017-08-07T07:52:05.246Z,41.2
2017-08-07T07:54:06.022Z,41
2017-08-07T07:56:10.742Z,41
2017-08-07T07:58:05.540Z,41.1
2017-08-07T08:00:05.440Z,40.9
2017-08-07T08:02:05.716Z,40.8
2017-08-07T08:04:06.426Z,40.8
2017-08-07T08:06:05.468Z,40.9
2017-08-07T08:08:05.361Z,42
2017-08-07T08:10:07.629Z,41.6
2017-08-07T08:12:05.744Z,41.5
2017-08-07T08:14:05.503Z,41.5
2017-08-07T08:16:08.033Z,41.2
2017-08-07T08:18:05.599Z,41.2
2017-08-07T08:20:05.495Z,41.1
2017-08-07T08:22:07.799Z,41.3
2017-08-07T08:24:10.529Z,41.1
2017-08-07T08:26:10.826Z,41
2017-08-07T08:28:05.829Z,41
2017-08-07T08:30:08.090Z,41.5
2017-08-07T08:32:08.319Z,41.2
2017-08-07T08:34:05.515Z,41.4
2017-08-07T08:36:10.320Z,41.3
2017-08-07T08:38:04.982Z,41.3
2017-08-07T08:40:10.794Z,41.3
2017-08-07T08:42:06.640Z,41.3
2017-08-07T08:44:06.192Z,41.3
2017-08-07T08:46:05.923Z,41.5
2017-08-07T08:48:05.662Z,41.6
2017-08-07T08:50:05.461Z,41.6
2017-08-07T08:52:05.221Z,41.5
2017-08-07T08:54:05.989Z,41.5
2017-08-07T08:56:05.738Z,41.4
2017-08-07T08:58:07.525Z,41.4
2017-08-07T09:00:05.326Z,41.4
2017-08-07T09:02:07.629Z,41.7
2017-08-07T09:04:08.398Z,41.6
2017-08-07T09:06:05.452Z,41.7
2017-08-07T09:08:05.159Z,42
2017-08-07T09:10:10.444Z,41.8
2017-08-07T09:12:10.352Z,41.8
2017-08-07T09:14:07.538Z,41.7
2017-08-07T09:16:05.554Z,41.6
2017-08-07T09:18:05.568Z,41.8
2017-08-07T09:20:05.828Z,42
2017-08-07T09:22:08.141Z,42
2017-08-07T09:24:11.123Z,41.6
2017-08-07T09:26:05.901Z,41.8
2017-08-07T09:28:18.254Z,41.8
2017-08-07T09:30:06.172Z,41.8
2017-08-07T09:32:05.960Z,41.8
2017-08-07T09:34:05.226Z,41.8
2017-08-07T09:36:08.666Z,42.1
2017-08-07T09:38:05.352Z,41.8
2017-08-07T09:40:05.014Z,42
2017-08-07T09:42:05.407Z,42
2017-08-07T09:44:05.185Z,41.8
2017-08-07T09:46:10.984Z,42
2017-08-07T09:48:05.973Z,41.8
2017-08-07T09:50:06.065Z,41.8
2017-08-07T09:52:05.793Z,41.7
2017-08-07T09:54:05.564Z,41.8
2017-08-07T09:56:05.232Z,41.8
2017-08-07T09:58:05.934Z,41.6
2017-08-07T10:00:06.080Z,41.7
2017-08-07T10:02:06.857Z,41.6
2017-08-07T10:04:05.867Z,41.4
2017-08-07T10:06:08.149Z,41.5
2017-08-07T10:08:05.500Z,41.2
2017-08-07T10:10:05.758Z,41
2017-08-07T10:12:08.144Z,40.6
2017-08-07T10:14:05.887Z,40.7
2017-08-07T10:16:05.677Z,41
2017-08-07T10:18:05.960Z,41
2017-08-07T10:20:05.708Z,40.7
2017-08-07T10:22:05.435Z,40.6
2017-08-07T10:24:05.219Z,40.7
2017-08-07T10:26:05.995Z,40.6
2017-08-07T10:28:08.288Z,40.8
2017-08-07T10:30:06.252Z,40.8
2017-08-07T10:32:05.123Z,40.6
2017-08-07T10:34:05.866Z,40.7
2017-08-07T10:36:05.725Z,40.3
2017-08-07T10:38:05.433Z,40.6
2017-08-07T10:40:05.221Z,40.6
2017-08-07T10:42:05.511Z,40.6
2017-08-07T10:44:05.227Z,40.4
2017-08-07T10:46:05.512Z,40.6
2017-08-07T10:48:05.471Z,40.6
2017-08-07T10:50:07.954Z,40.4
2017-08-07T10:52:08.791Z,40
2017-08-07T10:54:05.598Z,39.8
2017-08-07T10:56:05.424Z,40.1
2017-08-07T10:58:07.662Z,40.4
2017-08-07T11:00:05.471Z,40.4
2017-08-07T11:02:05.164Z,40.3
2017-08-07T11:04:08.391Z,39.9
2017-08-07T11:06:15.854Z,40
2017-08-07T11:08:05.754Z,40
2017-08-07T11:10:06.071Z,40.1
2017-08-07T11:12:05.870Z,40.2
2017-08-07T11:14:05.580Z,40.2
2017-08-07T11:16:05.858Z,40.1
2017-08-07T11:18:06.672Z,40.2
2017-08-07T11:20:05.690Z,39.8
2017-08-07T11:22:05.446Z,40
2017-08-07T11:24:05.512Z,39.8
2017-08-07T11:26:05.277Z,40.1
2017-08-07T11:28:05.094Z,39.7
2017-08-07T11:30:08.516Z,40.1
2017-08-07T11:32:07.789Z,39.8
2017-08-07T11:34:05.128Z,39.8
2017-08-07T11:36:13.631Z,39.4
2017-08-07T11:38:08.021Z,39.6
2017-08-07T11:40:18.470Z,39.6
2017-08-07T11:42:05.401Z,39.6
2017-08-07T11:44:05.156Z,39.4
2017-08-07T11:46:06.832Z,39.3
2017-08-07T11:48:05.688Z,39.7
2017-08-07T11:50:08.421Z,39.6
2017-08-07T11:52:05.137Z,39.6
2017-08-07T11:54:05.996Z,39.7
2017-08-07T11:56:08.290Z,39.1
2017-08-07T11:58:05.026Z,39
2017-08-07T12:00:08.594Z,39.3
2017-08-07T12:02:05.335Z,39.6
2017-08-07T12:04:05.105Z,39.1
2017-08-07T12:06:10.906Z,39.4
2017-08-07T12:08:05.630Z,39.4
2017-08-07T12:10:05.331Z,39.4
2017-08-07T12:12:05.323Z,39.2
2017-08-07T12:14:05.084Z,39.1
2017-08-07T12:16:07.894Z,39.4
2017-08-07T12:18:08.465Z,39.5
2017-08-07T12:20:08.553Z,39.4
2017-08-07T12:22:07.805Z,39.3
2017-08-07T12:24:05.063Z,39.3
2017-08-07T12:26:05.826Z,39.3
2017-08-07T12:28:08.181Z,39.4
2017-08-07T12:30:05.623Z,39.4
2017-08-07T12:32:16.009Z,39.2
2017-08-07T12:34:05.735Z,39.2
2017-08-07T12:36:08.482Z,39.1
2017-08-07T12:38:05.191Z,39.1
2017-08-07T12:40:05.431Z,39.3
2017-08-07T12:42:10.174Z,39.4
2017-08-07T12:44:05.998Z,39.5
2017-08-07T12:46:05.942Z,39.5
2017-08-07T12:48:06.020Z,39.4
2017-08-07T12:50:07.906Z,39.5
2017-08-07T12:52:05.631Z,39.6
2017-08-07T12:54:10.645Z,39.6
2017-08-07T12:56:07.892Z,39.6
2017-08-07T12:58:08.864Z,39.7
2017-08-07T13:00:05.442Z,39.7
2017-08-07T13:02:05.197Z,39.7
2017-08-07T13:04:05.946Z,39.7
2017-08-07T13:06:05.871Z,39.8
2017-08-07T13:08:05.524Z,39.8
2017-08-07T13:10:05.225Z,39.8
2017-08-07T13:12:08.552Z,39.7
2017-08-07T13:14:05.814Z,39.7
2017-08-07T13:16:10.247Z,39.8
2017-08-07T13:18:05.408Z,39.8
2017-08-07T13:20:05.165Z,39.8
2017-08-07T13:22:05.917Z,39.7
2017-08-07T13:24:08.169Z,39.7
2017-08-07T13:26:05.915Z,39.7
2017-08-07T13:28:05.648Z,39.6
2017-08-07T13:30:08.104Z,39.8
2017-08-07T13:32:06.194Z,39.8
2017-08-07T13:34:11.032Z,39.8
2017-08-07T13:36:05.951Z,39.8
2017-08-07T13:38:05.710Z,39.8
2017-08-07T13:40:05.699Z,39.8
2017-08-07T13:42:05.576Z,39.8
2017-08-07T13:44:05.394Z,39.8
2017-08-07T13:46:05.130Z,39.8
2017-08-07T13:48:07.387Z,39.8
2017-08-07T13:50:08.289Z,39.8
2017-08-07T13:52:06.030Z,39.8
2017-08-07T13:54:05.888Z,39.9
2017-08-07T13:56:05.771Z,39.9
2017-08-07T13:58:05.932Z,39.9
2017-08-07T14:00:05.849Z,39.8
2017-08-07T14:02:05.654Z,39.9
2017-08-07T14:04:05.633Z,39.9
2017-08-07T14:06:07.952Z,40
2017-08-07T14:08:05.673Z,40
2017-08-07T14:10:05.406Z,40.2
2017-08-07T14:12:06.049Z,40.3
2017-08-07T14:14:08.334Z,40.4
2017-08-07T14:16:05.413Z,40.1
2017-08-07T14:18:05.983Z,40.3
2017-08-07T14:20:05.784Z,40.4
2017-08-07T14:22:05.525Z,40.4
2017-08-07T14:24:05.946Z,40.4
2017-08-07T14:26:05.652Z,40.4
2017-08-07T14:28:07.877Z,40.5
2017-08-07T14:30:10.192Z,40.5
2017-08-07T14:32:05.889Z,40.4
2017-08-07T14:34:05.572Z,40.4
2017-08-07T14:36:05.436Z,40.4
2017-08-07T14:38:05.140Z,40.3
2017-08-07T14:40:10.461Z,40.4
2017-08-07T14:42:05.465Z,40.4
2017-08-07T14:44:15.333Z,40.5
2017-08-07T14:46:05.045Z,40.5
2017-08-07T14:48:05.826Z,40.5
2017-08-07T14:50:10.612Z,40.5
2017-08-07T14:52:05.509Z,40.5
2017-08-07T14:54:05.450Z,40.6
2017-08-07T14:56:05.197Z,40.6
2017-08-07T14:58:06.206Z,40.6
2017-08-07T15:00:08.679Z,40.6
2017-08-07T15:02:05.457Z,40.6
2017-08-07T15:04:05.134Z,40.7
2017-08-07T15:06:05.962Z,40.9
2017-08-07T15:08:08.556Z,40.9
2017-08-07T15:10:07.923Z,41
2017-08-07T15:12:05.127Z,40.9
2017-08-07T15:14:05.846Z,41
2017-08-07T15:16:05.552Z,41
2017-08-07T15:18:05.460Z,40.9
2017-08-07T15:20:05.384Z,41
2017-08-07T15:22:05.189Z,41
2017-08-07T15:24:11.633Z,41
2017-08-07T15:26:10.452Z,41
2017-08-07T15:28:05.172Z,41
2017-08-07T15:30:08.487Z,41.1
2017-08-07T15:32:05.758Z,41.1
2017-08-07T15:34:05.558Z,41.1
2017-08-07T15:36:08.319Z,41.1
2017-08-07T15:38:05.030Z,41.1
2017-08-07T15:40:06.368Z,41.1
2017-08-07T15:42:05.381Z,41.1
2017-08-07T15:44:15.205Z,41.1
2017-08-07T15:46:08.486Z,41.1
2017-08-07T15:48:05.953Z,41.1
2017-08-07T15:50:08.218Z,41.3
2017-08-07T15:52:05.961Z,41.3
2017-08-07T15:54:05.762Z,41.3
2017-08-07T15:56:08.413Z,41.3
2017-08-07T15:58:05.709Z,41
2017-08-07T16:00:05.531Z,41.2
2017-08-07T16:02:05.298Z,41.2
2017-08-07T16:04:05.061Z,41
2017-08-07T16:06:05.777Z,41.3
2017-08-07T16:08:05.511Z,41.2
2017-08-07T16:10:05.292Z,41.2
2017-08-07T16:12:05.166Z,41.1
2017-08-07T16:14:05.944Z,41.1
2017-08-07T16:16:05.649Z,41.2
2017-08-07T16:18:05.751Z,41.1
2017-08-07T16:20:05.508Z,41.1
2017-08-07T16:22:07.754Z,41.1
2017-08-07T16:24:05.156Z,41.1
2017-08-07T16:26:06.046Z,41.2
2017-08-07T16:28:06.452Z,41.3
2017-08-07T16:30:05.316Z,41.7
2017-08-07T16:32:07.565Z,41.8
2017-08-07T16:34:05.295Z,41.6
2017-08-07T16:36:06.162Z,41.7
2017-08-07T16:38:13.454Z,41.4
2017-08-07T16:40:05.473Z,41.6
2017-08-07T16:42:05.318Z,41.6
2017-08-07T16:44:05.767Z,41.4
2017-08-07T16:46:05.069Z,41.7
2017-08-07T16:48:05.380Z,41.7
2017-08-07T16:50:05.106Z,41.8
2017-08-07T16:52:05.844Z,41.8
2017-08-07T16:54:05.272Z,41.8
2017-08-07T16:56:06.000Z,41.9
2017-08-07T16:58:05.706Z,41.9
2017-08-07T17:00:05.852Z,41.9
2017-08-07T17:02:05.590Z,41.9
2017-08-07T17:04:07.812Z,41.9
2017-08-07T17:06:08.102Z,42.2
2017-08-07T17:08:05.989Z,42.2
2017-08-07T17:10:05.299Z,42.1
2017-08-07T17:12:05.034Z,42.2
2017-08-07T17:14:06.038Z,42.2
2017-08-07T17:16:05.837Z,42.1
2017-08-07T17:18:06.130Z,42.1
2017-08-07T17:20:10.940Z,42.1
2017-08-07T17:22:05.595Z,41.8
2017-08-07T17:24:08.435Z,42
2017-08-07T17:26:05.198Z,41.8
2017-08-07T17:28:05.917Z,41.8
2017-08-07T17:30:05.508Z,41.9
2017-08-07T17:32:05.437Z,41.8
2017-08-07T17:34:05.741Z,41.8
2017-08-07T17:36:05.843Z,41.9
2017-08-07T17:38:05.560Z,41.9
2017-08-07T17:40:05.239Z,42
2017-08-07T17:42:06.012Z,41.9
2017-08-07T17:44:05.716Z,42
2017-08-07T17:46:05.647Z,41.9
2017-08-07T17:48:05.615Z,41.8
2017-08-07T17:50:10.350Z,16.2
2017-08-07T17:52:05.169Z,41.8
2017-08-07T17:54:08.631Z,41.9
2017-08-07T17:56:07.941Z,41.9
2017-08-07T17:58:05.661Z,41.9
2017-08-07T18:00:06.508Z,41.9
2017-08-07T18:02:07.759Z,41.9
2017-08-07T18:04:05.719Z,41.9
2017-08-07T18:06:11.130Z,41.9
2017-08-07T18:08:12.950Z,41.9
2017-08-07T18:10:08.195Z,42
2017-08-07T18:12:06.173Z,41.9
2017-08-07T18:14:05.902Z,42
2017-08-07T18:16:08.178Z,42.1
2017-08-07T18:18:05.476Z,42
2017-08-07T18:20:05.525Z,42
2017-08-07T18:22:07.788Z,42
2017-08-07T18:24:05.601Z,42
2017-08-07T18:26:05.342Z,42
2017-08-07T18:28:05.099Z,42
2017-08-07T18:30:06.019Z,42.1
2017-08-07T18:32:05.736Z,42.1
2017-08-07T18:34:05.497Z,42.1
2017-08-07T18:36:05.409Z,42.1
2017-08-07T18:38:07.748Z,42.1
2017-08-07T18:40:08.049Z,42.1
2017-08-07T18:42:05.490Z,41.9
2017-08-07T18:44:05.213Z,42
2017-08-07T18:46:07.737Z,42.2
2017-08-07T18:48:07.037Z,42
2017-08-07T18:50:05.746Z,42.2
2017-08-07T18:52:05.819Z,42.3
2017-08-07T18:54:05.243Z,42.2
2017-08-07T18:56:05.990Z,41.9
2017-08-07T18:58:08.475Z,42
2017-08-07T19:00:05.301Z,42
2017-08-07T19:02:05.033Z,42.1
2017-08-07T19:04:05.746Z,42.1
2017-08-07T19:06:06.125Z,42.1
2017-08-07T19:08:06.203Z,42.2
2017-08-07T19:10:05.470Z,42.1
2017-08-07T19:12:05.295Z,42.1
2017-08-07T19:14:05.056Z,42.2
2017-08-07T19:16:05.794Z,42.3
2017-08-07T19:18:05.806Z,42.2
2017-08-07T19:20:05.525Z,42
2017-08-07T19:22:05.237Z,42.2
2017-08-07T19:24:06.084Z,42.3
2017-08-07T19:26:05.766Z,42.4
2017-08-07T19:28:08.209Z,42.5
2017-08-07T19:30:05.887Z,42.4
2017-08-07T19:32:08.231Z,42.5
2017-08-07T19:34:13.538Z,42.6
2017-08-07T19:36:05.260Z,42.6
2017-08-07T19:38:05.950Z,42.6
2017-08-07T19:40:05.835Z,42.8
2017-08-07T19:42:05.891Z,42.6
2017-08-07T19:44:05.617Z,42.5
2017-08-07T19:46:05.352Z,42.5
2017-08-07T19:48:10.197Z,42.7
2017-08-07T19:50:05.961Z,42.7
2017-08-07T19:52:05.691Z,42.8
2017-08-07T19:54:08.270Z,42.8
2017-08-07T19:56:06.031Z,42.7
2017-08-07T19:58:05.788Z,42.7
2017-08-07T20:00:05.560Z,42.7
2017-08-07T20:02:05.258Z,42.8
2017-08-07T20:04:05.956Z,42.7
2017-08-07T20:06:10.671Z,42.5
2017-08-07T20:08:07.943Z,42.9
2017-08-07T20:10:05.671Z,42.6
2017-08-07T20:12:05.522Z,42.9
2017-08-07T20:14:05.235Z,42.9
2017-08-07T20:16:05.526Z,43
2017-08-07T20:18:08.391Z,43
2017-08-07T20:20:05.199Z,42.8
2017-08-07T20:22:05.933Z,42.9
2017-08-07T20:24:08.360Z,43.2
2017-08-07T20:26:05.050Z,43
2017-08-07T20:28:05.882Z,43.1
2017-08-07T20:30:05.989Z,43.4
2017-08-07T20:32:05.239Z,43.2
2017-08-07T20:34:05.926Z,43.2
2017-08-07T20:36:05.766Z,43.3
2017-08-07T20:38:05.502Z,43.3
2017-08-07T20:40:05.437Z,43.4
2017-08-07T20:42:05.306Z,43.4
2017-08-07T20:44:05.156Z,43.4
2017-08-07T20:46:05.896Z,43.4
2017-08-07T20:48:05.928Z,43.5
2017-08-07T20:50:05.703Z,43.5
2017-08-07T20:52:07.954Z,43.5
2017-08-07T20:54:07.785Z,43.6
2017-08-07T20:56:05.539Z,43.6
2017-08-07T20:58:05.268Z,43.5
2017-08-07T21:00:08.717Z,43.6
2017-08-07T21:02:05.417Z,43.4
2017-08-07T21:04:05.153Z,43.6
2017-08-07T21:06:06.065Z,43.6
2017-08-07T21:08:05.888Z,43.7
2017-08-07T21:10:07.702Z,43.6
2017-08-07T21:12:05.522Z,43.5
2017-08-07T21:14:07.801Z,43.6
2017-08-07T21:16:08.245Z,43.6
2017-08-07T21:18:10.809Z,43.6
2017-08-07T21:20:05.833Z,43.6
2017-08-07T21:22:05.580Z,43.6
2017-08-07T21:24:06.000Z,43.6
2017-08-07T21:26:08.230Z,43.6
2017-08-07T21:28:05.568Z,43.6
2017-08-07T21:30:05.543Z,43.6
2017-08-07T21:32:10.312Z,43.6
2017-08-07T21:34:05.271Z,43.6
2017-08-07T21:36:13.680Z,43.6
2017-08-07T21:38:15.544Z,43.6
2017-08-07T21:40:05.865Z,43.6
2017-08-07T21:42:05.917Z,43.6
2017-08-07T21:44:05.639Z,43.6
2017-08-07T21:46:05.377Z,43.6
2017-08-07T21:48:05.644Z,43.6
2017-08-07T21:50:05.474Z,43.6
2017-08-07T21:52:05.171Z,43.8
2017-08-07T21:54:06.220Z,43.6
2017-08-07T21:56:06.012Z,43.6
2017-08-07T21:58:05.264Z,43.6
2017-08-07T22:00:06.096Z,43.6
2017-08-07T22:02:10.479Z,43.6
2017-08-07T22:04:07.814Z,43.6
2017-08-07T22:06:05.540Z,43.6
2017-08-07T22:08:07.983Z,43.6
2017-08-07T22:10:08.224Z,43.6
2017-08-07T22:12:06.173Z,43.6
2017-08-07T22:14:08.404Z,43.6
2017-08-07T22:16:05.111Z,43.6
2017-08-07T22:18:07.940Z,43.6
2017-08-07T22:20:06.012Z,43.6
2017-08-07T22:22:05.727Z,43.6
2017-08-07T22:24:05.535Z,43.6
2017-08-07T22:26:08.311Z,43.6
2017-08-07T22:28:05.720Z,43.8
2017-08-07T22:30:08.522Z,43.6
2017-08-07T22:32:12.799Z,43.6
2017-08-07T22:34:08.052Z,43.6
2017-08-07T22:36:06.250Z,43.6
2017-08-07T22:38:05.591Z,43.8
2017-08-07T22:40:07.802Z,43.6
2017-08-07T22:42:05.694Z,43.6
2017-08-07T22:44:05.494Z,43.8
2017-08-07T22:46:05.740Z,43.6
2017-08-07T22:48:05.594Z,43.6
2017-08-07T22:50:08.408Z,43.6
2017-08-07T22:52:05.333Z,43.6
2017-08-07T22:54:05.251Z,43.6
2017-08-07T22:56:05.951Z,43.6
2017-08-07T22:58:10.333Z,43.6
2017-08-07T23:00:05.668Z,43.6
2017-08-07T23:02:05.490Z,43.6
2017-08-07T23:04:05.199Z,43.8
2017-08-07T23:06:06.093Z,43.6
2017-08-07T23:08:05.888Z,43.6
2017-08-07T23:10:05.609Z,43.6
2017-08-07T23:12:05.374Z,43.6
2017-08-07T23:14:05.204Z,43.6
2017-08-07T23:16:05.940Z,43.9
2017-08-07T23:18:05.886Z,43.6
2017-08-07T23:20:05.631Z,43.6
2017-08-07T23:22:05.870Z,43.6
2017-08-07T23:24:05.647Z,43.6
2017-08-07T23:26:05.356Z,43.9
2017-08-07T23:28:05.079Z,44
2017-08-07T23:30:08.427Z,44
2017-08-07T23:32:07.744Z,44.1
2017-08-07T23:34:05.977Z,44.1
2017-08-07T23:36:05.767Z,44.1
2017-08-07T23:38:05.555Z,44.1
2017-08-07T23:40:07.981Z,44.2
2017-08-07T23:42:08.209Z,44.3
2017-08-07T23:44:05.934Z,44.3
2017-08-07T23:46:05.625Z,44.3
2017-08-07T23:48:05.325Z,44.3
2017-08-07T23:50:07.624Z,44.3
2017-08-07T23:52:05.338Z,44.3
2017-08-07T23:54:05.194Z,44.3
2017-08-07T23:56:05.931Z,44.3
2017-08-07T23:58:05.840Z,44.3
